Time;durP1;ratioP1;P1;durP2;ratioP2;P2;SDS_P1;SDS_P2;PMS_P1;PMS_P2;Temp;Humidity;BMP_temperature;BMP_pressure;BME280_temperature;BME280_humidity;BME280_pressure;Samples;Min_cycle;Max_cycle;Signal;HPM_P1;HPM_P2
2021/05/27 00:00:59;;;;;;;4.45;3.00;;;;;;;8.24;92.03;100361.78;4977624;28;20046;-80
2021/05/27 00:03:25;;;;;;;4.38;3.03;;;;;;;8.29;92.09;100375.66;4999807;28;20057;-80
2021/05/27 00:05:53;;;;;;;5.18;2.92;;;;;;;8.25;92.37;100368.78;4992488;28;20089;-79
2021/05/27 00:08:20;;;;;;;6.68;3.20;;;;;;;8.21;91.97;100362.75;4992197;28;20121;-79
2021/05/27 00:10:47;;;;;;;6.82;3.35;;;;;;;8.22;92.22;100363.63;5005148;28;20030;-80
2021/05/27 00:13:14;;;;;;;5.13;3.40;;;;;;;8.24;91.93;100364.41;4989537;28;20067;-81
2021/05/27 00:15:42;;;;;;;4.05;2.90;;;;;;;8.24;91.74;100367.91;4981351;28;20054;-81
2021/05/27 00:18:14;;;;;;;6.80;3.25;;;;;;;8.24;91.90;100375.84;4969823;28;20828;-81
2021/05/27 00:20:41;;;;;;;6.25;3.42;;;;;;;8.20;91.71;100368.09;4989896;28;20058;-81
2021/05/27 00:23:08;;;;;;;4.82;3.35;;;;;;;8.18;92.06;100376.09;4975162;28;20042;-81
2021/05/27 00:25:34;;;;;;;4.68;3.55;;;;;;;8.20;91.74;100370.72;4967337;28;20046;-81
2021/05/27 00:28:01;;;;;;;5.85;3.83;;;;;;;8.20;92.15;100376.00;4978289;28;20043;-80
2021/05/27 00:30:28;;;;;;;7.00;3.47;;;;;;;8.16;91.59;100367.38;4990879;28;20085;-81
2021/05/27 00:32:56;;;;;;;8.45;3.83;;;;;;;8.16;92.03;100371.78;4994364;28;20081;-81
2021/05/27 00:35:22;;;;;;;4.22;3.63;;;;;;;8.06;91.87;100356.28;5004678;28;20113;-79
2021/05/27 00:37:49;;;;;;;6.35;3.90;;;;;;;8.11;91.70;100366.66;4991731;28;20057;-79
2021/05/27 00:40:17;;;;;;;5.20;3.25;;;;;;;8.12;91.72;100367.53;4985064;28;20052;-80
2021/05/27 00:42:45;;;;;;;5.50;3.95;;;;;;;8.06;92.13;100363.34;5000563;28;20049;-81
2021/05/27 00:45:15;;;;;;;4.10;3.42;;;;;;;8.10;92.37;100364.94;5003767;28;20053;-81
2021/05/27 00:47:42;;;;;;;5.72;3.65;;;;;;;8.08;92.03;100367.63;5014346;28;20110;-79
2021/05/27 00:50:20;;;;;;;3.72;3.35;;;;;;;8.07;91.85;100355.38;5012168;28;20470;-79
2021/05/27 00:52:49;;;;;;;4.20;3.72;;;;;;;8.13;91.47;100370.13;5007076;28;20042;-80
2021/05/27 00:55:21;;;;;;;6.60;3.92;;;;;;;8.13;91.34;100364.84;5006432;28;20287;-80
2021/05/27 00:57:48;;;;;;;6.85;4.20;;;;;;;8.13;91.11;100369.25;5009844;28;20042;-81
2021/05/27 01:00:21;;;;;;;8.02;3.90;;;;;;;8.21;91.19;100380.34;5009131;28;20485;-80
2021/05/27 01:02:47;;;;;;;;;;;;;;;8.30;91.19;100377.41;5013378;28;20078;-81
2021/05/27 01:05:16;;;;;;;6.65;4.55;;;;;;;8.34;91.27;100377.22;4995190;28;19926;-81
2021/05/27 01:07:43;;;;;;;6.35;4.18;;;;;;;8.40;90.72;100373.50;4979125;28;20050;-81
2021/05/27 01:10:14;;;;;;;5.13;4.50;;;;;;;8.44;90.84;100381.25;4981301;28;20069;-82
2021/05/27 01:12:40;;;;;;;4.68;4.18;;;;;;;8.48;90.63;100379.38;4979139;28;20056;-81
2021/05/27 01:17:59;;;;;;;6.13;4.47;;;;;;;8.51;90.23;100376.59;4973045;28;20089;-81
2021/05/27 01:20:27;;;;;;;6.65;3.90;;;;;;;8.55;90.26;100374.69;4977413;28;20057;-81
2021/05/27 01:22:54;;;;;;;8.32;4.57;;;;;;;8.57;90.43;100379.00;4971753;28;20470;-81
2021/05/27 01:25:21;;;;;;;6.85;3.97;;;;;;;8.60;90.20;100380.66;4980337;28;20056;-81
2021/05/27 01:27:48;;;;;;;5.45;4.25;;;;;;;8.65;89.94;100382.22;4973279;28;20048;-80
2021/05/27 01:30:17;;;;;;;6.78;4.40;;;;;;;8.69;89.96;100380.28;4993361;28;20089;-80
2021/05/27 01:32:44;;;;;;;6.00;4.30;;;;;;;8.69;89.48;100373.22;4987476;28;20074;-80
2021/05/27 01:35:17;;;;;;;4.82;4.20;;;;;;;8.72;89.13;100381.03;5003105;28;20052;-79
2021/05/27 01:37:44;;;;;;;4.35;3.88;;;;;;;8.67;89.04;100372.44;4983485;28;20042;-80
2021/05/27 01:40:17;;;;;;;5.85;3.67;;;;;;;8.70;89.17;100382.00;4985872;28;20054;-80
2021/05/27 01:42:43;;;;;;;6.82;4.05;;;;;;;8.72;88.43;100381.03;4990074;28;20053;-79
2021/05/27 01:45:11;;;;;;;5.82;3.90;;;;;;;8.67;88.54;100382.97;4993514;28;20073;-81
2021/05/27 01:47:38;;;;;;;5.40;3.55;;;;;;;8.68;88.22;100384.72;5001343;28;20053;-81
2021/05/27 01:50:08;;;;;;;4.75;3.55;;;;;;;8.68;88.33;100390.00;5003670;28;20403;-82
2021/05/27 01:52:36;;;;;;;4.63;3.65;;;;;;;8.73;88.10;100388.03;4976359;28;20058;-81
2021/05/27 01:55:04;;;;;;;6.00;3.45;;;;;;;8.75;88.12;100385.34;4982710;28;20076;-81
2021/05/27 01:57:34;;;;;;;4.93;3.28;;;;;;;8.74;87.56;100384.47;4992674;28;20050;-81
2021/05/27 02:00:04;;;;;;;5.35;3.00;;;;;;;8.82;87.05;100383.28;4989437;28;20058;-80
2021/05/27 02:02:31;;;;;;;6.40;3.30;;;;;;;8.82;87.50;100381.50;4994309;28;20038;-81
2021/05/27 02:04:58;;;;;;;4.15;3.10;;;;;;;8.86;86.87;100388.41;4987757;28;20142;-79
2021/05/27 02:07:27;;;;;;;7.47;3.70;;;;;;;8.89;87.14;100393.56;4972562;28;20715;-79
2021/05/27 02:09:54;;;;;;;6.00;3.05;;;;;;;8.90;86.75;100391.78;4975116;28;20094;-80
2021/05/27 02:12:22;;;;;;;5.05;2.95;;;;;;;8.91;87.17;100394.38;4984931;28;20050;-80
2021/05/27 02:14:49;;;;;;;7.38;3.40;;;;;;;8.93;87.05;100383.75;4968835;28;20055;-80
2021/05/27 02:17:15;;;;;;;4.28;2.60;;;;;;;9.01;86.26;100393.06;4983564;28;20050;-80
2021/05/27 02:19:42;;;;;;;8.20;3.42;;;;;;;9.02;86.27;100383.34;4973148;28;20506;-79
2021/05/27 02:22:11;;;;;;;4.75;2.90;;;;;;;9.01;86.33;100387.78;4983384;28;20112;-80
2021/05/27 02:24:38;;;;;;;3.88;2.63;;;;;;;9.04;86.05;100392.94;4979089;28;20053;-82
2021/05/27 02:27:05;;;;;;;8.15;2.90;;;;;;;9.02;86.32;100388.66;4975134;28;20692;-82
2021/05/27 02:29:33;;;;;;;3.88;2.95;;;;;;;9.01;86.23;100394.84;4987317;28;20066;-80
2021/05/27 02:31:59;;;;;;;5.65;3.00;;;;;;;9.01;86.33;100394.84;4993408;28;20069;-81
2021/05/27 02:34:29;;;;;;;4.97;3.10;;;;;;;9.06;85.95;100392.88;5004843;28;20113;-81
2021/05/27 02:36:57;;;;;;;4.75;2.83;;;;;;;9.05;85.97;100393.81;4972910;28;20056;-82
2021/05/27 02:39:24;;;;;;;5.43;3.03;;;;;;;9.08;86.12;100394.56;4989397;28;20050;-81
2021/05/27 02:41:50;;;;;;;6.85;2.92;;;;;;;9.10;86.27;100397.13;4993355;28;20062;-80
2021/05/27 02:44:17;;;;;;;6.18;2.78;;;;;;;9.08;85.82;100393.69;5002369;28;20041;-81
2021/05/27 02:46:44;;;;;;;6.82;2.80;;;;;;;9.11;85.88;100401.50;4973541;28;20591;-82
2021/05/27 02:49:11;;;;;;;4.38;3.08;;;;;;;9.06;86.22;100395.53;4980551;28;20048;-80
2021/05/27 02:51:38;;;;;;;3.70;3.30;;;;;;;9.06;86.41;100395.53;4978251;28;20096;-81
2021/05/27 02:54:05;;;;;;;5.55;3.17;;;;;;;9.05;86.65;100397.31;4981434;28;20053;-79
2021/05/27 02:56:33;;;;;;;5.90;3.47;;;;;;;9.06;86.88;100395.53;4995383;28;20050;-81
2021/05/27 02:59:00;;;;;;;4.85;3.58;;;;;;;9.12;86.63;100405.84;4980981;28;20590;-80
2021/05/27 03:01:27;;;;;;;4.93;3.75;;;;;;;9.09;86.82;100401.56;4975736;28;20050;-80
2021/05/27 03:03:54;;;;;;;6.45;3.83;;;;;;;9.07;86.68;100403.41;4984743;28;20062;-81
2021/05/27 03:06:21;;;;;;;5.85;4.05;;;;;;;9.04;87.10;100402.66;4999103;28;20042;-79
2021/05/27 03:08:48;;;;;;;6.32;4.18;;;;;;;9.03;87.14;100403.56;4987650;28;20057;-79
2021/05/27 03:11:15;;;;;;;7.18;4.15;;;;;;;9.02;87.17;100404.50;4986807;28;20081;-79
2021/05/27 03:13:42;;;;;;;9.75;4.40;;;;;;;9.01;87.83;100403.63;5002794;28;20047;-80
2021/05/27 03:16:09;;;;;;;9.60;4.97;;;;;;;9.01;87.78;100410.69;5004426;28;20139;-80
2021/05/27 03:18:35;;;;;;;10.30;5.25;;;;;;;9.00;88.02;100409.84;5009437;28;20042;-79
2021/05/27 03:21:02;;;;;;;6.20;4.82;;;;;;;8.98;88.27;100409.03;5000933;28;20050;-78
2021/05/27 03:23:33;;;;;;;6.80;4.95;;;;;;;9.03;88.64;100411.50;4991298;28;20054;-79
2021/05/27 03:26:00;;;;;;;8.65;5.30;;;;;;;9.05;88.59;100409.66;5005099;28;20046;-79
2021/05/27 03:28:30;;;;;;;9.38;5.70;;;;;;;9.06;88.75;100406.97;4981320;28;20054;-79
2021/05/27 03:31:00;;;;;;;10.57;5.32;;;;;;;9.06;88.59;100412.25;4990043;28;20046;-79
2021/05/27 03:33:27;;;;;;;7.25;5.28;;;;;;;9.05;88.00;100404.38;4985402;28;20042;-79
2021/05/27 03:35:53;;;;;;;11.40;6.40;;;;;;;9.06;88.11;100411.38;4991944;28;20081;-79
2021/05/27 03:38:20;;;;;;;7.93;6.20;;;;;;;9.05;88.52;100410.50;4987266;28;20050;-80
2021/05/27 03:40:46;;;;;;;7.30;5.85;;;;;;;9.07;88.73;100407.81;4994989;28;20069;-79
2021/05/27 03:43:13;;;;;;;11.63;6.28;;;;;;;9.09;88.90;100413.91;5000023;28;20114;-80
2021/05/27 03:45:41;;;;;;;9.90;6.55;;;;;;;9.11;88.49;100415.56;4993829;28;20061;-81
2021/05/27 03:48:12;;;;;;;10.13;7.07;;;;;;;9.10;88.78;100410.34;5000321;28;20026;-81
2021/05/27 03:50:40;;;;;;;8.90;6.82;;;;;;;9.16;88.49;100418.00;4998673;28;20043;-81
2021/05/27 03:53:08;;;;;;;8.38;6.60;;;;;;;9.10;88.46;100405.91;4999108;28;20952;-81
2021/05/27 03:55:34;;;;;;;11.13;7.60;;;;;;;9.18;88.19;100420.56;4987965;28;20127;-81
2021/05/27 03:58:01;;;;;;;10.10;7.43;;;;;;;9.20;88.08;100421.38;4981501;28;20058;-81
2021/05/27 04:00:45;;;;;;;10.20;7.35;;;;;;;9.15;87.95;100414.50;5005355;28;20141;-81
2021/05/27 04:03:12;;;;;;;10.48;7.55;;;;;;;9.16;88.44;100423.28;4991326;28;20073;-79
2021/05/27 04:08:25;;;;;;;9.93;7.40;;;;;;;9.18;88.46;100418.78;4988978;28;20136;-80
2021/05/27 04:10:53;;;;;;;9.65;7.75;;;;;;;9.19;88.29;100417.88;4978885;28;20050;-82
2021/05/27 04:13:19;;;;;;;9.75;7.57;;;;;;;9.23;88.29;100414.19;4978999;28;20054;-80
2021/05/27 04:15:47;;;;;;;12.45;8.70;;;;;;;9.26;88.52;100431.72;4979554;28;20097;-81
2021/05/27 04:18:17;;;;;;;14.75;8.00;;;;;;;9.28;89.31;100417.53;5001065;28;20472;-82
2021/05/27 04:20:47;;;;;;;9.98;8.18;;;;;;;9.32;88.39;100413.81;5007327;28;20042;-80
2021/05/27 04:23:16;;;;;;;12.25;7.75;;;;;;;9.41;87.45;100429.28;5001374;28;20114;-81
2021/05/27 04:25:44;;;;;;;12.43;7.72;;;;;;;9.32;86.83;100405.88;4975290;28;20044;-82
2021/05/27 04:28:11;;;;;;;9.27;7.47;;;;;;;9.43;87.35;100435.38;4996374;28;20068;-80
2021/05/27 04:33:24;;;;;;;11.50;7.65;;;;;;;9.45;87.38;100430.88;5008479;28;20114;-80
2021/05/27 04:35:50;;;;;;;11.52;8.30;;;;;;;9.54;88.23;100439.34;5002917;28;20118;-81
2021/05/27 04:38:17;;;;;;;13.30;8.25;;;;;;;9.59;87.75;100438.25;4980899;28;20127;-80
2021/05/27 04:40:47;;;;;;;12.05;8.05;;;;;;;9.63;86.04;100437.16;4990348;28;20122;-82
2021/05/27 04:43:16;;;;;;;11.10;7.63;;;;;;;9.63;85.77;100429.22;5005735;28;20081;-81
2021/05/27 04:45:43;;;;;;;8.88;7.70;;;;;;;9.58;86.85;100428.59;4990187;28;20038;-82
2021/05/27 04:48:12;;;;;;;11.75;8.45;;;;;;;9.57;86.06;100428.66;4990281;28;20121;-80
2021/05/27 04:50:40;;;;;;;11.07;7.85;;;;;;;9.60;86.27;100432.00;5006841;28;20065;-80
2021/05/27 04:53:07;;;;;;;12.95;8.05;;;;;;;9.61;86.51;100439.00;4996401;28;20107;-78
2021/05/27 04:55:36;;;;;;;9.05;7.25;;;;;;;9.63;86.63;100434.53;4990516;28;20046;-79
2021/05/27 04:58:04;;;;;;;10.57;7.15;;;;;;;9.64;85.92;100438.88;4991572;28;20042;-79
2021/05/27 05:00:31;;;;;;;11.48;7.63;;;;;;;9.64;85.92;100432.75;4982191;28;20050;-82
2021/05/27 05:02:58;;;;;;;10.32;7.75;;;;;;;9.74;85.71;100442.03;4983468;28;20098;-83
2021/05/27 05:05:27;;;;;;;12.00;7.65;;;;;;;9.81;85.55;100448.75;4977556;28;20050;-81
2021/05/27 05:07:54;;;;;;;8.85;7.18;;;;;;;9.77;84.98;100434.78;4984110;28;20054;-82
2021/05/27 05:10:23;;;;;;;9.77;8.00;;;;;;;9.78;85.26;100436.50;4984963;28;20047;-80
2021/05/27 05:12:50;;;;;;;10.18;7.47;;;;;;;9.75;84.60;100441.09;4978457;28;20042;-81
2021/05/27 05:15:43;;;;;;;10.18;7.18;;;;;;;9.77;84.92;100453.31;5003674;28;20054;-79
2021/05/27 05:18:12;;;;;;;10.00;6.95;;;;;;;9.76;85.17;100445.44;4982981;28;20122;-80
2021/05/27 05:20:44;;;;;;;9.63;7.28;;;;;;;9.77;85.64;100445.38;4976522;28;20082;-80
2021/05/27 05:23:11;;;;;;;10.50;6.32;;;;;;;9.73;84.34;100449.09;4991629;28;20038;-79
2021/05/27 05:25:40;;;;;;;10.45;7.05;;;;;;;9.72;84.82;100443.88;4979179;28;20096;-81
2021/05/27 05:28:08;;;;;;;9.60;7.00;;;;;;;9.78;84.67;100451.50;4990315;28;20111;-79
2021/05/27 05:30:35;;;;;;;8.85;6.40;;;;;;;9.78;83.66;100455.03;4994078;28;20481;-80
2021/05/27 05:33:01;;;;;;;8.38;6.00;;;;;;;9.81;83.43;100460.19;4999711;28;20438;-80
2021/05/27 05:35:29;;;;;;;9.25;6.18;;;;;;;9.80;83.31;100452.31;4995818;28;20125;-80
2021/05/27 05:37:57;;;;;;;8.63;6.20;;;;;;;9.84;82.79;100453.91;4990766;28;20073;-79
2021/05/27 05:40:26;;;;;;;8.30;6.43;;;;;;;9.95;83.31;100451.66;4972602;28;20114;-80
2021/05/27 05:42:53;;;;;;;8.82;6.40;;;;;;;10.17;82.01;100464.81;4997170;28;20050;-80
2021/05/27 05:45:20;;;;;;;10.75;6.03;;;;;;;10.32;80.56;100458.00;4990787;28;20113;-80
2021/05/27 05:47:48;;;;;;;10.75;5.88;;;;;;;10.39;80.08;100470.06;4981752;28;20055;-80
2021/05/27 05:50:44;;;;;;;9.40;6.20;;;;;;;10.41;79.29;100478.75;4991694;28;20048;-81
2021/05/27 05:53:04;;;;;;;7.55;6.05;;;;;;;10.38;80.60;100476.28;5005675;28;20054;-80
2021/05/27 05:55:31;;;;;;;8.25;5.78;;;;;;;10.39;80.64;100470.88;4989675;28;20062;-81
2021/05/27 05:57:58;;;;;;;9.68;5.68;;;;;;;10.44;80.36;100483.91;4994599;28;20096;-82
2021/05/27 06:00:25;;;;;;;9.30;6.18;;;;;;;10.38;79.98;100481.56;5005699;28;20096;-81
2021/05/27 06:02:51;;;;;;;9.25;5.70;;;;;;;10.39;80.79;100488.59;4992424;28;20061;-80
2021/05/27 06:05:18;;;;;;;7.97;5.63;;;;;;;10.42;80.43;100489.28;4976451;28;20137;-81
2021/05/27 06:07:45;;;;;;;10.57;5.93;;;;;;;10.52;80.32;100490.59;4992603;28;20081;-80
2021/05/27 06:10:11;;;;;;;7.18;5.60;;;;;;;10.64;79.36;100501.56;4994273;28;20060;-81
2021/05/27 06:12:40;;;;;;;7.85;5.35;;;;;;;10.68;79.31;100498.72;5000004;28;20066;-81
2021/05/27 06:15:08;;;;;;;8.43;5.95;;;;;;;10.70;79.00;100496.88;4978330;28;20056;-81
2021/05/27 06:17:35;;;;;;;8.93;5.70;;;;;;;10.82;77.99;100501.59;4968834;28;20065;-82
2021/05/27 06:20:03;;;;;;;9.07;5.80;;;;;;;10.92;77.92;100498.50;4992583;28;20046;-81
2021/05/27 06:22:30;;;;;;;7.00;6.18;;;;;;;10.93;77.49;100506.38;4988805;28;20050;-81
2021/05/27 06:24:56;;;;;;;8.27;5.72;;;;;;;10.78;78.51;100496.50;4976084;28;20045;-82
2021/05/27 06:27:23;;;;;;;8.02;5.18;;;;;;;10.83;77.42;100508.59;4987420;28;20046;-81
2021/05/27 06:29:51;;;;;;;6.75;5.65;;;;;;;10.82;78.51;100508.69;4995644;28;20501;-81
2021/05/27 06:32:18;;;;;;;8.15;5.97;;;;;;;10.94;78.49;100507.25;4997701;28;20497;-81
2021/05/27 06:34:44;;;;;;;9.75;5.78;;;;;;;11.14;77.63;100517.78;4994119;28;20054;-82
2021/05/27 06:37:11;;;;;;;8.07;5.60;;;;;;;11.25;76.27;100518.97;4982902;28;20106;-81
2021/05/27 06:39:40;;;;;;;8.25;5.30;;;;;;;11.17;76.98;100514.97;4984988;28;20088;-80
2021/05/27 06:42:06;;;;;;;6.43;5.50;;;;;;;11.10;77.13;100519.69;5008940;28;20051;-80
2021/05/27 06:44:34;;;;;;;9.52;5.75;;;;;;;11.17;76.97;100509.69;4982660;28;20084;-81
2021/05/27 06:47:01;;;;;;;8.00;5.43;;;;;;;11.29;75.71;100518.84;4964601;28;20126;-82
2021/05/27 06:49:28;;;;;;;10.10;5.07;;;;;;;11.37;75.87;100506.91;4998493;28;20133;-81
2021/05/27 06:51:57;;;;;;;9.00;5.28;;;;;;;11.52;76.23;100522.06;4992020;28;20122;-81
2021/05/27 06:54:24;;;;;;;7.60;5.03;;;;;;;11.59;77.47;100517.34;4995658;28;20614;-82
2021/05/27 06:56:52;;;;;;;12.93;4.95;;;;;;;11.78;75.87;100512.88;4997467;28;20126;-82
2021/05/27 06:59:19;;;;;;;7.07;5.32;;;;;;;11.80;74.60;100510.16;4993639;28;20064;-81
2021/05/27 07:01:46;;;;;;;9.32;5.47;;;;;;;12.01;73.21;100518.81;5002169;28;20131;-81
2021/05/27 07:04:13;;;;;;;7.97;5.07;;;;;;;12.08;72.59;100514.91;4996532;28;20053;-82
2021/05/27 07:06:42;;;;;;;6.75;5.00;;;;;;;12.00;72.54;100517.09;4980848;28;20046;-81
2021/05/27 07:09:09;;;;;;;9.90;7.38;;;;;;;11.86;73.47;100516.00;4975784;28;20050;-82
2021/05/27 07:11:35;;;;;;;7.97;5.10;;;;;;;11.73;73.65;100514.88;4994125;28;20046;-82
2021/05/27 07:14:02;;;;;;;5.88;4.88;;;;;;;11.72;74.44;100517.59;4994164;28;20072;-81
2021/05/27 07:16:29;;;;;;;6.63;5.35;;;;;;;11.81;74.65;100518.00;4983084;28;20161;-79
2021/05/27 07:18:56;;;;;;;10.93;5.32;;;;;;;11.94;74.38;100516.47;4989738;28;20051;-80
2021/05/27 07:21:24;;;;;;;7.53;5.63;;;;;;;12.12;73.23;100525.28;4990604;28;20137;-81
2021/05/27 07:23:51;;;;;;;8.48;5.22;;;;;;;12.24;73.48;100518.50;4982103;28;20066;-82
2021/05/27 07:26:18;;;;;;;8.82;5.03;;;;;;;12.29;72.59;100519.09;5008239;28;20050;-81
2021/05/27 07:28:46;;;;;;;7.05;4.80;;;;;;;12.36;72.13;100531.13;4975940;28;20050;-82
2021/05/27 07:31:14;;;;;;;7.03;3.90;;;;;;;12.38;71.36;100513.31;4998631;28;20038;-82
2021/05/27 07:33:43;;;;;;;6.68;4.32;;;;;;;12.41;71.18;100517.63;4981055;28;20105;-82
2021/05/27 07:36:09;;;;;;;7.72;4.20;;;;;;;12.37;71.52;100527.53;4982162;28;20137;-80
2021/05/27 07:38:38;;;;;;;6.57;4.13;;;;;;;12.35;70.62;100520.59;4996624;28;20050;-82
2021/05/27 07:41:06;;;;;;;6.32;3.35;;;;;;;12.35;70.59;100509.97;5008657;28;20046;-82
2021/05/27 07:43:33;;;;;;;8.27;4.20;;;;;;;12.38;70.18;100517.78;4992606;28;20117;-82
2021/05/27 07:46:01;;;;;;;6.15;4.00;;;;;;;12.40;70.75;100518.56;4986848;28;20073;-80
2021/05/27 07:48:28;;;;;;;7.20;4.40;;;;;;;12.53;70.55;100522.28;5004819;28;20125;-80
2021/05/27 07:50:55;;;;;;;6.43;3.83;;;;;;;12.65;70.01;100521.63;5002476;28;20050;-82
2021/05/27 07:53:23;;;;;;;6.13;3.67;;;;;;;12.68;69.93;100525.91;5002224;28;20046;-82
2021/05/27 07:55:50;;;;;;;4.32;3.70;;;;;;;12.61;69.37;100525.38;5002545;28;20057;-83
2021/05/27 07:58:16;;;;;;;9.63;4.30;;;;;;;12.53;69.78;100516.97;4987983;28;20134;-82
2021/05/27 08:00:43;;;;;;;4.75;4.10;;;;;;;12.61;69.36;100520.91;4985985;28;20077;-83
2021/05/27 08:03:10;;;;;;;6.80;3.97;;;;;;;12.73;68.88;100515.91;4983272;28;20057;-80
2021/05/27 08:05:39;;;;;;;8.23;4.05;;;;;;;12.89;70.36;100517.66;4996366;28;20069;-81
2021/05/27 08:08:05;;;;;;;14.27;4.00;;;;;;;13.05;68.64;100524.78;4984974;28;20047;-81
2021/05/27 08:10:32;;;;;;;5.97;3.88;;;;;;;13.02;68.28;100524.94;4972674;28;20071;-82
2021/05/27 08:12:59;;;;;;;5.30;3.97;;;;;;;12.96;68.81;100527.00;4999123;28;20109;-83
2021/05/27 08:15:26;;;;;;;9.25;4.00;;;;;;;12.92;68.86;100524.56;4996499;28;20060;-80
2021/05/27 08:17:53;;;;;;;5.45;3.75;;;;;;;12.84;69.12;100530.31;4969705;28;20046;-81
2021/05/27 08:20:21;;;;;;;4.28;3.42;;;;;;;12.76;69.70;100529.00;4973316;28;20122;-83
2021/05/27 08:22:47;;;;;;;7.65;4.20;;;;;;;12.61;70.71;100528.03;4984330;28;20133;-80
2021/05/27 08:25:14;;;;;;;5.68;4.43;;;;;;;12.52;70.59;100525.88;5000921;28;20191;-80
2021/05/27 08:27:41;;;;;;;4.85;4.10;;;;;;;12.49;70.50;100526.03;4992503;28;20054;-80
2021/05/27 08:30:09;;;;;;;7.65;4.20;;;;;;;12.45;71.69;100525.31;4990192;28;20076;-81
2021/05/27 08:32:37;;;;;;;5.90;4.05;;;;;;;12.39;71.50;100525.66;4982423;28;20141;-82
2021/05/27 08:35:05;;;;;;;5.68;3.90;;;;;;;12.30;71.48;100539.41;4984702;28;20106;-80
2021/05/27 08:37:31;;;;;;;6.53;4.32;;;;;;;12.28;71.82;100528.00;4996479;28;20042;-79
2021/05/27 08:39:58;;;;;;;7.30;3.95;;;;;;;12.20;71.45;100525.75;4987462;28;20110;-80
2021/05/27 08:42:26;;;;;;;7.45;3.92;;;;;;;12.22;71.72;100531.00;4979365;28;20128;-79
2021/05/27 08:44:56;;;;;;;9.15;4.20;;;;;;;12.22;72.18;100539.81;4995999;28;20093;-80
2021/05/27 08:47:23;;;;;;;5.80;3.83;;;;;;;12.27;71.94;100542.25;5007344;28;20127;-79
2021/05/27 08:49:51;;;;;;;5.93;3.90;;;;;;;12.30;72.61;100532.31;4988548;28;20042;-82
2021/05/27 08:52:17;;;;;;;5.10;3.75;;;;;;;12.39;71.14;100530.97;4979082;28;20051;-80
2021/05/27 08:54:44;;;;;;;5.22;4.10;;;;;;;12.37;71.22;100529.34;5007325;28;20031;-80
2021/05/27 08:57:12;;;;;;;4.43;3.90;;;;;;;12.50;70.68;100541.03;4998885;28;20054;-80
2021/05/27 08:59:38;;;;;;;4.97;3.85;;;;;;;12.67;69.72;100541.00;5005335;28;20042;-79
2021/05/27 09:02:10;;;;;;;6.47;4.20;;;;;;;12.81;69.33;100540.25;4990876;28;20111;-80
2021/05/27 09:04:39;;;;;;;8.77;4.45;;;;;;;12.96;68.88;100542.09;5002047;28;20056;-79
2021/05/27 09:07:06;;;;;;;6.28;4.20;;;;;;;13.18;68.85;100549.78;4990852;28;20060;-79
2021/05/27 09:10:05;;;;;;;5.22;4.03;;;;;;;13.55;67.92;100538.78;5009930;28;20058;-80
2021/05/27 09:12:34;;;;;;;5.70;4.15;;;;;;;13.88;65.84;100548.44;4993742;28;20031;-80
2021/05/27 09:15:23;;;;;;;6.05;3.80;;;;;;;14.08;64.83;100550.81;5010745;28;20038;-80
2021/05/27 09:17:52;;;;;;;5.75;3.80;;;;;;;14.19;64.09;100548.34;4996405;28;20058;-80
2021/05/27 09:20:28;;;;;;;7.10;3.67;;;;;;;14.43;64.31;100550.53;5008024;28;20073;-80
2021/05/27 09:23:20;;;;;;;10.43;3.75;;;;;;;14.82;62.96;100549.91;5004097;28;20062;-80
2021/05/27 09:25:53;;;;;;;7.68;3.85;;;;;;;15.27;61.46;100549.66;4983652;28;20541;-81
2021/05/27 09:28:29;;;;;;;5.22;3.60;;;;;;;15.73;59.67;100550.28;4986061;28;20051;-81
2021/05/27 09:31:05;;;;;;;5.70;3.65;;;;;;;16.02;58.43;100548.31;4984288;28;20056;-82
2021/05/27 09:33:42;;;;;;;5.20;3.25;;;;;;;16.17;58.01;100551.78;4995975;28;20039;-82
2021/05/27 09:36:10;;;;;;;6.05;3.47;;;;;;;16.13;57.94;100550.28;5012960;28;20050;-81
2021/05/27 09:38:52;;;;;;;4.20;3.35;;;;;;;16.19;58.42;100557.88;5018056;28;20079;-79
2021/05/27 09:41:31;;;;;;;4.88;3.38;;;;;;;16.37;57.45;100553.09;5004334;28;20537;-81
2021/05/27 09:44:00;;;;;;;5.90;3.55;;;;;;;16.68;56.70;100549.19;5000516;28;20046;-81
2021/05/27 09:46:28;;;;;;;3.92;3.30;;;;;;;16.87;56.27;100546.06;4984631;28;20046;-81
2021/05/27 09:49:04;;;;;;;4.07;3.38;;;;;;;16.92;54.69;100527.88;4977139;28;20057;-81
2021/05/27 09:51:32;;;;;;;4.85;3.22;;;;;;;17.05;55.37;100540.28;4982877;28;20122;-80
2021/05/27 09:54:00;;;;;;;5.82;3.67;;;;;;;17.11;54.51;100545.19;4991738;28;20090;-79
2021/05/27 09:56:41;;;;;;;5.07;3.38;;;;;;;16.77;54.95;100535.19;4986002;28;20054;-80
2021/05/27 10:02:13;;;;;;;3.90;3.22;;;;;;;16.17;57.19;100545.59;5135393;22;20057;-80
2021/05/27 10:04:56;;;;;;;5.05;3.10;;;;;;;15.86;57.93;100549.44;4998455;28;20101;-81
2021/05/27 10:07:38;;;;;;;6.70;3.45;;;;;;;15.50;58.88;100544.66;5000263;28;20073;-80
2021/05/27 10:10:25;;;;;;;4.78;3.67;;;;;;;15.14;59.54;100542.53;5004846;28;20057;-81
2021/05/27 10:12:54;;;;;;;5.45;3.20;;;;;;;14.93;61.15;100539.44;5001554;28;20105;-80
2021/05/27 10:15:25;;;;;;;3.38;2.90;;;;;;;14.99;60.98;100544.38;4980381;28;20118;-81
2021/05/27 10:17:54;;;;;;;6.13;2.85;;;;;;;15.32;60.29;100541.38;4993156;28;20054;-81
2021/05/27 10:20:25;;;;;;;5.83;3.27;;;;;;;15.81;59.75;100548.88;5020473;28;20058;-80
2021/05/27 10:22:56;;;;;;;4.05;2.88;;;;;;;16.24;57.27;100550.38;4986559;28;20392;-81
2021/05/27 10:25:25;;;;;;;6.00;3.10;;;;;;;16.39;56.19;100545.81;5015642;28;20539;-82
2021/05/27 10:27:56;;;;;;;4.38;3.03;;;;;;;16.40;56.37;100545.72;4997118;28;20060;-80
2021/05/27 10:30:23;;;;;;;;;;;;;;;16.53;57.21;100550.25;4995526;28;20056;-82
2021/05/27 10:32:56;;;;;;;3.88;2.42;;;;;;;16.57;54.63;100543.69;4994590;28;20017;-81
2021/05/27 10:35:23;;;;;;;6.10;2.70;;;;;;;16.69;54.56;100545.53;5011736;28;20456;-80
2021/05/27 10:37:51;;;;;;;4.85;2.60;;;;;;;16.62;53.69;100530.88;5003656;28;20109;-80
2021/05/27 10:40:19;;;;;;;4.07;2.95;;;;;;;16.56;54.20;100539.31;5019338;28;20069;-79
2021/05/27 10:42:55;;;;;;;5.78;3.00;;;;;;;16.57;55.26;100533.00;4992968;28;20068;-81
2021/05/27 10:45:28;;;;;;;5.95;2.70;;;;;;;16.65;54.75;100526.19;5006781;28;20073;-81
2021/05/27 10:48:14;;;;;;;3.38;2.60;;;;;;;16.83;55.09;100534.75;5022568;28;20046;-80
2021/05/27 10:50:50;;;;;;;3.78;2.30;;;;;;;17.10;54.77;100531.94;5011960;28;20096;-80
2021/05/27 10:53:40;;;;;;;3.05;2.30;;;;;;;17.31;52.74;100530.38;5015053;28;20046;-80
2021/05/27 10:56:06;;;;;;;2.40;2.20;;;;;;;17.54;51.11;100524.19;4999075;28;20058;-80
2021/05/27 10:58:45;;;;;;;4.97;2.25;;;;;;;17.54;51.34;100531.34;4998706;28;20053;-81
2021/05/27 11:01:12;;;;;;;3.60;2.35;;;;;;;17.33;52.70;100528.44;4999811;28;20069;-81
2021/05/27 11:03:44;;;;;;;3.25;2.08;;;;;;;17.10;52.24;100538.13;5019734;28;20050;-80
2021/05/27 11:06:23;;;;;;;3.00;2.65;;;;;;;16.70;53.26;100531.22;5022405;28;20057;-81
2021/05/27 11:09:10;;;;;;;3.70;2.20;;;;;;;16.42;55.20;100538.44;5009122;28;20133;-79
2021/05/27 11:11:45;;;;;;;3.35;1.85;;;;;;;16.22;56.04;100549.63;5012507;28;20046;-79
2021/05/27 11:14:36;;;;;;;3.08;2.10;;;;;;;15.97;55.67;100544.25;5010490;28;20069;-81
2021/05/27 11:17:24;;;;;;;3.97;2.40;;;;;;;15.86;57.11;100546.78;5025757;28;20149;-79
2021/05/27 11:19:58;;;;;;;3.65;2.40;;;;;;;15.78;58.05;100549.94;5019800;28;20041;-80
2021/05/27 11:22:43;;;;;;;4.32;2.60;;;;;;;15.64;58.92;100561.53;5002759;28;20104;-82
2021/05/27 11:25:16;;;;;;;4.45;2.60;;;;;;;15.46;61.17;100560.03;5014976;28;20105;-81
2021/05/27 11:27:46;;;;;;;5.47;2.80;;;;;;;15.21;61.90;100568.75;5017774;28;20052;-82
2021/05/27 11:30:16;;;;;;;3.03;2.63;;;;;;;14.84;64.36;100582.66;4999931;28;20454;-83
2021/05/27 11:33:03;;;;;;;6.50;3.20;;;;;;;14.50;66.73;100582.03;5012826;28;20126;-84
2021/05/27 11:35:36;;;;;;;4.90;3.45;;;;;;;14.08;69.82;100590.75;5009612;28;20073;-82
2021/05/27 11:38:05;;;;;;;7.13;4.15;;;;;;;13.73;72.43;100594.56;5027608;28;20045;-80
2021/05/27 11:40:34;;;;;;;5.97;4.00;;;;;;;13.34;75.45;100606.50;5005580;28;20049;-80
2021/05/27 11:43:01;;;;;;;7.73;3.80;;;;;;;13.02;78.38;100607.38;5025754;28;20092;-81
2021/05/27 11:45:37;;;;;;;7.28;4.22;;;;;;;12.75;80.79;100607.03;5008133;28;20046;-82
2021/05/27 11:48:28;;;;;;;6.68;4.72;;;;;;;12.43;82.78;100622.84;5015508;28;20045;-80
2021/05/27 11:51:17;;;;;;;7.05;4.65;;;;;;;12.10;86.08;100614.78;4996001;28;20102;-80